Main page
Satellite images 15-day forecastsClimateMarine weather Cyclones Lightning AirportsFAQ Newsletter About
Weather : Europe Africa North America South America Asia Australia-Oceania Others
Languages Contact

Milan, Italy

Malpensa

latitude: 45-37N, longitude: 008-44E, elevation: 234 m


METAR: LIMC 311750Z VRB01KT 3500 BR NSC 09/08 Q1026 NOSIG
TAF: LIMC 311700Z 3118/0124 VRB05KT 3000 BR NSC TEMPO 0100/0107 0800 BCFG BECMG 0108/0110 6000

Time: 19:26 (18:26 UTC)

Current weather observation

The report was made 36 minutes ago, at 17:50 UTC
Wind 1 kt from variable directions
Temperature 9°C
Humidity 93%
Pressure 1026 hPa
Visibility: 3500 m
mist

Change units

Forecast

The report was made 1 hour and 26 minutes ago, at 17:00 UTC
Forecast valid from 31 at 18 UTC to 01 at 24 UTC
Wind 5 kt from variable directions
Visibility: 3000 m
mist
Temporary
from 01 at 00 UTC to 01 at 07 UTC
Visibility: 0800 m
patches of fog
Becoming
from 01 at 08 UTC to 01 at 10 UTC
Visibility: 6000 m
The information on this site is subject to a disclaimer
Weather : Europe Africa North America South America Asia Australia-Oceania Others
Satellite images 15-day forecastsClimateMarine weather Cyclones Lightning AirportsFAQ Languages Contact Newsletter About